This is the latest recevied weather packets stored in our database for station/object WB0OCV. If no packets are shown the sender has not sent any weather packets the latest 10 day(s).
| Time | Temp. | Humidity | Pressure | Rain* | Wind** | Luminosity | Snow |
|---|---|---|---|---|---|---|---|
| 1777567734 | 13.89° C | 82% | 1008.9 hPa | 0 mm | - | 123 W/m² | - |
| 1777567431 | 13.89° C | 80% | 1008.8 hPa | 0 mm | - | 222 W/m² | - |
| 1777567129 | 14.44° C | 79% | 1008.7 hPa | 0 mm | - | 290 W/m² | - |
| 1777566826 | 13.89° C | 80% | 1008.7 hPa | 0 mm | - | 409 W/m² | - |
| 1777566524 | 13.89° C | 80% | 1008.8 hPa | 0 mm | - | 292 W/m² | - |
| 1777566222 | 14.44° C | 78% | 1008.8 hPa | 0 mm | - | 196 W/m² | - |
| 1777565918 | 14.44° C | 79% | 1008.9 hPa | 0 mm | - | 237 W/m² | - |
| 1777565613 | 14.44° C | 77% | 1008.8 hPa | 0 mm | - | 204 W/m² | - |
| 1777565311 | 15° C | 78% | 1008.7 hPa | 0 mm | - | 272 W/m² | - |
| 1777565006 | 15° C | 80% | 1008.8 hPa | 0 mm | - | 398 W/m² | - |
| 1777564702 | 15° C | 78% | 1008.7 hPa | 0 mm | - | 251 W/m² | - |
| 1777564397 | 15° C | 79% | 1008.6 hPa | 0 mm | - | 306 W/m² | - |
| 1777564094 | 15° C | 79% | 1008.6 hPa | 0 mm | - | 447 W/m² | - |
| 1777563790 | 15° C | 78% | 1008.5 hPa | 0 mm | - | 298 W/m² | - |
| 1777563486 | 14.44° C | 80% | 1008.7 hPa | 0 mm | - | 379 W/m² | - |
| 1777563185 | 14.44° C | 82% | 1008.7 hPa | 0 mm | - | 767 W/m² | - |
| 1777562882 | 13.89° C | 82% | 1009 hPa | 0 mm | - | 275 W/m² | - |
| 1777562579 | 13.89° C | 82% | 1008.8 hPa | 0 mm | - | 233 W/m² | - |
| 1777562277 | 13.89° C | 81% | 1008.8 hPa | 0 mm | - | 358 W/m² | - |
| 1777561974 | 13.89° C | 81% | 1008.5 hPa | 0 mm | - | 359 W/m² | - |
| 1777561671 | 13.89° C | 82% | 1008.7 hPa | 0 mm | - | 474 W/m² | - |
| 1777561367 | 13.89° C | 83% | 1008.7 hPa | 0 mm | - | 402 W/m² | - |
| 1777561062 | 12.78° C | 86% | 1008.5 hPa | 0 mm | - | 294 W/m² | - |
| 1777560758 | 13.33° C | 85% | 1008.7 hPa | 0 mm | - | 326 W/m² | - |
| 1777560455 | 12.78° C | 87% | 1008.9 hPa | 0 mm | - | 336 W/m² | - |
* Rain latest hour (hover to see other rain measurements)
** Current wind speed in m/s (hover to see current wind gust speed)